sensor_id;sensor_type;location;lat;lon;timestamp;P1;durP1;ratioP1;P2;durP2;ratioP2
72611;SDS011;60655;52.182;4.474;2022-09-09T00:03:53;9.68;;;2.78;;
72611;SDS011;60655;52.182;4.474;2022-09-09T00:08:38;8.85;;;3.42;;
72611;SDS011;60655;52.182;4.474;2022-09-09T00:11:00;9.93;;;3.67;;
72611;SDS011;60655;52.182;4.474;2022-09-09T00:13:22;9.55;;;3.70;;
72611;SDS011;60655;52.182;4.474;2022-09-09T00:15:36;9.57;;;3.80;;
72611;SDS011;60655;52.182;4.474;2022-09-09T00:17:48;9.18;;;3.70;;
72611;SDS011;60655;52.182;4.474;2022-09-09T00:20:01;8.77;;;3.38;;
72611;SDS011;60655;52.182;4.474;2022-09-09T00:24:32;9.90;;;3.45;;
72611;SDS011;60655;52.182;4.474;2022-09-09T00:26:38;11.05;;;3.88;;
72611;SDS011;60655;52.182;4.474;2022-09-09T00:28:50;8.38;;;3.42;;
72611;SDS011;60655;52.182;4.474;2022-09-09T00:30:57;11.38;;;3.80;;
72611;SDS011;60655;52.182;4.474;2022-09-09T00:33:09;7.15;;;3.45;;
72611;SDS011;60655;52.182;4.474;2022-09-09T00:35:22;7.03;;;3.50;;
72611;SDS011;60655;52.182;4.474;2022-09-09T00:37:25;9.10;;;3.75;;
72611;SDS011;60655;52.182;4.474;2022-09-09T00:41:44;12.13;;;3.85;;
72611;SDS011;60655;52.182;4.474;2022-09-09T00:44:14;7.80;;;3.42;;
72611;SDS011;60655;52.182;4.474;2022-09-09T00:46:41;7.53;;;4.07;;
72611;SDS011;60655;52.182;4.474;2022-09-09T00:51:25;9.27;;;4.00;;
72611;SDS011;60655;52.182;4.474;2022-09-09T00:53:30;8.18;;;3.63;;
72611;SDS011;60655;52.182;4.474;2022-09-09T00:58:06;9.35;;;4.18;;
72611;SDS011;60655;52.182;4.474;2022-09-09T01:02:39;11.40;;;5.20;;
72611;SDS011;60655;52.182;4.474;2022-09-09T01:05:07;13.55;;;4.85;;
72611;SDS011;60655;52.182;4.474;2022-09-09T01:07:20;11.10;;;5.70;;
72611;SDS011;60655;52.182;4.474;2022-09-09T01:09:22;13.25;;;5.57;;
72611;SDS011;60655;52.182;4.474;2022-09-09T01:13:52;12.80;;;6.40;;
72611;SDS011;60655;52.182;4.474;2022-09-09T01:16:00;12.85;;;5.60;;
72611;SDS011;60655;52.182;4.474;2022-09-09T01:18:10;11.43;;;5.97;;
72611;SDS011;60655;52.182;4.474;2022-09-09T01:20:17;12.88;;;5.70;;
72611;SDS011;60655;52.182;4.474;2022-09-09T01:22:34;11.60;;;6.32;;
72611;SDS011;60655;52.182;4.474;2022-09-09T01:27:20;11.35;;;5.10;;
72611;SDS011;60655;52.182;4.474;2022-09-09T01:29:24;10.18;;;5.20;;
72611;SDS011;60655;52.182;4.474;2022-09-09T01:31:32;13.30;;;5.80;;
72611;SDS011;60655;52.182;4.474;2022-09-09T01:33:37;11.57;;;5.63;;
72611;SDS011;60655;52.182;4.474;2022-09-09T01:37:42;12.23;;;5.57;;
72611;SDS011;60655;52.182;4.474;2022-09-09T01:39:43;13.65;;;5.32;;
72611;SDS011;60655;52.182;4.474;2022-09-09T01:41:45;11.30;;;5.53;;
72611;SDS011;60655;52.182;4.474;2022-09-09T01:43:46;13.25;;;6.00;;
72611;SDS011;60655;52.182;4.474;2022-09-09T01:45:48;12.65;;;5.72;;
72611;SDS011;60655;52.182;4.474;2022-09-09T01:47:53;12.38;;;5.90;;
72611;SDS011;60655;52.182;4.474;2022-09-09T01:49:54;11.02;;;5.20;;
72611;SDS011;60655;52.182;4.474;2022-09-09T01:51:55;11.80;;;5.95;;
72611;SDS011;60655;52.182;4.474;2022-09-09T01:54:00;13.73;;;6.25;;
72611;SDS011;60655;52.182;4.474;2022-09-09T02:00:11;11.48;;;5.63;;
72611;SDS011;60655;52.182;4.474;2022-09-09T02:02:18;10.38;;;5.80;;
72611;SDS011;60655;52.182;4.474;2022-09-09T02:06:42;11.38;;;5.45;;
72611;SDS011;60655;52.182;4.474;2022-09-09T02:08:49;13.18;;;6.15;;
72611;SDS011;60655;52.182;4.474;2022-09-09T02:10:55;11.75;;;5.68;;
72611;SDS011;60655;52.182;4.474;2022-09-09T02:13:04;14.48;;;6.22;;
72611;SDS011;60655;52.182;4.474;2022-09-09T02:15:13;11.30;;;6.13;;
72611;SDS011;60655;52.182;4.474;2022-09-09T02:17:39;12.80;;;5.55;;
72611;SDS011;60655;52.182;4.474;2022-09-09T02:19:44;13.55;;;5.55;;
72611;SDS011;60655;52.182;4.474;2022-09-09T02:21:49;12.20;;;6.40;;
72611;SDS011;60655;52.182;4.474;2022-09-09T02:23:51;12.85;;;5.65;;
72611;SDS011;60655;52.182;4.474;2022-09-09T02:25:53;13.25;;;6.97;;
72611;SDS011;60655;52.182;4.474;2022-09-09T02:27:58;13.38;;;6.47;;
72611;SDS011;60655;52.182;4.474;2022-09-09T02:29:59;13.10;;;7.07;;
72611;SDS011;60655;52.182;4.474;2022-09-09T02:32:04;12.77;;;6.22;;
72611;SDS011;60655;52.182;4.474;2022-09-09T02:34:08;13.35;;;6.53;;
72611;SDS011;60655;52.182;4.474;2022-09-09T02:36:12;12.65;;;5.97;;
72611;SDS011;60655;52.182;4.474;2022-09-09T02:38:16;10.07;;;5.55;;
72611;SDS011;60655;52.182;4.474;2022-09-09T02:40:18;10.20;;;5.70;;
72611;SDS011;60655;52.182;4.474;2022-09-09T02:42:19;10.45;;;5.47;;
72611;SDS011;60655;52.182;4.474;2022-09-09T02:44:20;11.38;;;5.97;;
72611;SDS011;60655;52.182;4.474;2022-09-09T02:46:27;13.18;;;6.18;;
72611;SDS011;60655;52.182;4.474;2022-09-09T02:48:55;11.77;;;5.07;;
72611;SDS011;60655;52.182;4.474;2022-09-09T02:55:48;9.88;;;4.88;;
72611;SDS011;60655;52.182;4.474;2022-09-09T02:58:11;10.57;;;5.40;;
72611;SDS011;60655;52.182;4.474;2022-09-09T03:00:22;8.95;;;4.35;;
72611;SDS011;60655;52.182;4.474;2022-09-09T03:02:24;10.75;;;4.70;;
72611;SDS011;60655;52.182;4.474;2022-09-09T03:04:26;9.95;;;5.07;;
72611;SDS011;60655;52.182;4.474;2022-09-09T03:06:27;11.25;;;4.43;;
72611;SDS011;60655;52.182;4.474;2022-09-09T03:08:28;7.97;;;4.20;;
72611;SDS011;60655;52.182;4.474;2022-09-09T03:10:29;10.85;;;4.25;;
72611;SDS011;60655;52.182;4.474;2022-09-09T03:12:31;12.85;;;4.55;;
72611;SDS011;60655;52.182;4.474;2022-09-09T03:14:33;7.97;;;3.60;;
72611;SDS011;60655;52.182;4.474;2022-09-09T03:16:34;10.10;;;3.80;;
72611;SDS011;60655;52.182;4.474;2022-09-09T03:18:35;9.95;;;3.50;;
72611;SDS011;60655;52.182;4.474;2022-09-09T03:20:36;9.57;;;3.83;;
72611;SDS011;60655;52.182;4.474;2022-09-09T03:22:37;8.10;;;3.35;;
72611;SDS011;60655;52.182;4.474;2022-09-09T03:24:38;8.48;;;3.70;;
72611;SDS011;60655;52.182;4.474;2022-09-09T03:26:40;10.30;;;3.50;;
72611;SDS011;60655;52.182;4.474;2022-09-09T03:28:42;9.95;;;3.55;;
72611;SDS011;60655;52.182;4.474;2022-09-09T03:30:43;9.63;;;4.00;;
72611;SDS011;60655;52.182;4.474;2022-09-09T03:32:44;8.20;;;3.60;;
72611;SDS011;60655;52.182;4.474;2022-09-09T03:34:45;9.63;;;4.13;;
72611;SDS011;60655;52.182;4.474;2022-09-09T03:36:50;9.45;;;3.55;;
72611;SDS011;60655;52.182;4.474;2022-09-09T03:38:51;9.95;;;3.10;;
72611;SDS011;60655;52.182;4.474;2022-09-09T03:40:53;9.15;;;3.08;;
72611;SDS011;60655;52.182;4.474;2022-09-09T03:42:58;7.65;;;2.67;;
72611;SDS011;60655;52.182;4.474;2022-09-09T03:44:59;8.63;;;3.15;;
72611;SDS011;60655;52.182;4.474;2022-09-09T03:46:59;7.38;;;2.90;;
72611;SDS011;60655;52.182;4.474;2022-09-09T03:49:01;7.47;;;2.95;;
72611;SDS011;60655;52.182;4.474;2022-09-09T03:51:02;8.65;;;3.15;;
72611;SDS011;60655;52.182;4.474;2022-09-09T03:53:03;7.28;;;2.78;;
72611;SDS011;60655;52.182;4.474;2022-09-09T03:55:07;7.40;;;2.70;;
72611;SDS011;60655;52.182;4.474;2022-09-09T03:57:11;7.85;;;2.70;;
72611;SDS011;60655;52.182;4.474;2022-09-09T03:59:12;9.57;;;3.05;;
72611;SDS011;60655;52.182;4.474;2022-09-09T04:01:15;8.77;;;2.75;;
72611;SDS011;60655;52.182;4.474;2022-09-09T04:03:18;8.73;;;2.60;;
72611;SDS011;60655;52.182;4.474;2022-09-09T04:05:19;7.13;;;2.75;;
72611;SDS011;60655;52.182;4.474;2022-09-09T04:07:20;7.25;;;2.55;;
72611;SDS011;60655;52.182;4.474;2022-09-09T04:09:22;10.35;;;3.22;;
72611;SDS011;60655;52.182;4.474;2022-09-09T04:11:22;9.95;;;2.80;;
72611;SDS011;60655;52.182;4.474;2022-09-09T04:13:24;8.07;;;2.90;;
72611;SDS011;60655;52.182;4.474;2022-09-09T04:15:26;8.48;;;2.95;;
72611;SDS011;60655;52.182;4.474;2022-09-09T04:17:27;13.90;;;3.20;;
72611;SDS011;60655;52.182;4.474;2022-09-09T04:19:28;7.32;;;2.70;;
72611;SDS011;60655;52.182;4.474;2022-09-09T04:21:29;9.30;;;2.72;;
72611;SDS011;60655;52.182;4.474;2022-09-09T04:23:30;7.97;;;3.20;;
72611;SDS011;60655;52.182;4.474;2022-09-09T04:25:31;9.77;;;3.22;;
72611;SDS011;60655;52.182;4.474;2022-09-09T04:27:33;13.80;;;3.50;;
72611;SDS011;60655;52.182;4.474;2022-09-09T04:29:34;7.07;;;3.00;;
72611;SDS011;60655;52.182;4.474;2022-09-09T04:31:35;9.05;;;3.00;;
72611;SDS011;60655;52.182;4.474;2022-09-09T04:33:36;7.78;;;2.83;;
72611;SDS011;60655;52.182;4.474;2022-09-09T04:35:38;9.38;;;2.90;;
72611;SDS011;60655;52.182;4.474;2022-09-09T04:37:39;7.72;;;2.92;;
72611;SDS011;60655;52.182;4.474;2022-09-09T04:39:40;8.13;;;2.83;;
72611;SDS011;60655;52.182;4.474;2022-09-09T04:41:41;9.07;;;2.70;;
72611;SDS011;60655;52.182;4.474;2022-09-09T04:43:42;8.48;;;2.58;;
72611;SDS011;60655;52.182;4.474;2022-09-09T04:45:44;8.48;;;2.78;;
72611;SDS011;60655;52.182;4.474;2022-09-09T04:47:48;11.38;;;2.90;;
72611;SDS011;60655;52.182;4.474;2022-09-09T04:49:49;10.60;;;3.65;;
72611;SDS011;60655;52.182;4.474;2022-09-09T04:51:50;7.88;;;2.72;;
72611;SDS011;60655;52.182;4.474;2022-09-09T04:53:51;8.88;;;2.60;;
72611;SDS011;60655;52.182;4.474;2022-09-09T04:56:02;9.73;;;2.95;;
72611;SDS011;60655;52.182;4.474;2022-09-09T04:58:05;9.70;;;2.70;;
72611;SDS011;60655;52.182;4.474;2022-09-09T05:00:07;9.60;;;2.80;;
72611;SDS011;60655;52.182;4.474;2022-09-09T05:02:09;8.25;;;2.75;;
72611;SDS011;60655;52.182;4.474;2022-09-09T05:04:10;7.70;;;3.03;;
72611;SDS011;60655;52.182;4.474;2022-09-09T05:06:12;9.77;;;3.22;;
72611;SDS011;60655;52.182;4.474;2022-09-09T05:10:18;10.60;;;2.53;;
72611;SDS011;60655;52.182;4.474;2022-09-09T05:12:19;8.13;;;2.53;;
72611;SDS011;60655;52.182;4.474;2022-09-09T05:14:20;8.70;;;2.65;;
72611;SDS011;60655;52.182;4.474;2022-09-09T05:16:21;9.27;;;2.50;;
72611;SDS011;60655;52.182;4.474;2022-09-09T05:18:23;5.85;;;2.15;;
72611;SDS011;60655;52.182;4.474;2022-09-09T05:20:24;8.07;;;2.47;;
72611;SDS011;60655;52.182;4.474;2022-09-09T05:22:25;7.80;;;2.60;;
72611;SDS011;60655;52.182;4.474;2022-09-09T05:24:27;8.98;;;2.47;;
72611;SDS011;60655;52.182;4.474;2022-09-09T05:26:28;9.57;;;2.58;;
72611;SDS011;60655;52.182;4.474;2022-09-09T05:28:30;8.35;;;2.17;;
72611;SDS011;60655;52.182;4.474;2022-09-09T05:30:31;7.60;;;2.13;;
72611;SDS011;60655;52.182;4.474;2022-09-09T05:32:32;11.07;;;2.70;;
72611;SDS011;60655;52.182;4.474;2022-09-09T05:34:33;9.48;;;2.63;;
72611;SDS011;60655;52.182;4.474;2022-09-09T05:36:35;8.93;;;2.13;;
72611;SDS011;60655;52.182;4.474;2022-09-09T05:38:36;8.23;;;2.40;;
72611;SDS011;60655;52.182;4.474;2022-09-09T05:40:38;10.63;;;2.15;;
72611;SDS011;60655;52.182;4.474;2022-09-09T05:42:39;10.50;;;2.47;;
72611;SDS011;60655;52.182;4.474;2022-09-09T05:44:40;8.05;;;2.35;;
72611;SDS011;60655;52.182;4.474;2022-09-09T05:46:42;7.32;;;2.63;;
72611;SDS011;60655;52.182;4.474;2022-09-09T05:48:45;9.25;;;2.33;;
72611;SDS011;60655;52.182;4.474;2022-09-09T05:50:52;8.18;;;2.03;;
72611;SDS011;60655;52.182;4.474;2022-09-09T05:54:55;8.57;;;2.15;;
72611;SDS011;60655;52.182;4.474;2022-09-09T05:56:57;11.52;;;2.70;;
72611;SDS011;60655;52.182;4.474;2022-09-09T05:58:58;9.02;;;2.55;;
72611;SDS011;60655;52.182;4.474;2022-09-09T06:01:01;10.73;;;2.80;;
72611;SDS011;60655;52.182;4.474;2022-09-09T06:03:08;5.63;;;2.13;;
72611;SDS011;60655;52.182;4.474;2022-09-09T06:05:11;8.65;;;2.40;;
72611;SDS011;60655;52.182;4.474;2022-09-09T06:07:13;6.25;;;2.22;;
72611;SDS011;60655;52.182;4.474;2022-09-09T06:09:15;7.00;;;2.08;;
72611;SDS011;60655;52.182;4.474;2022-09-09T06:11:17;8.88;;;2.10;;
72611;SDS011;60655;52.182;4.474;2022-09-09T06:13:20;8.68;;;2.20;;
72611;SDS011;60655;52.182;4.474;2022-09-09T06:15:21;6.75;;;2.10;;
72611;SDS011;60655;52.182;4.474;2022-09-09T06:17:22;7.72;;;2.40;;
72611;SDS011;60655;52.182;4.474;2022-09-09T06:19:23;8.48;;;2.05;;
72611;SDS011;60655;52.182;4.474;2022-09-09T06:21:27;8.25;;;1.90;;
72611;SDS011;60655;52.182;4.474;2022-09-09T06:23:39;8.27;;;1.92;;
72611;SDS011;60655;52.182;4.474;2022-09-09T06:25:40;6.90;;;1.77;;
72611;SDS011;60655;52.182;4.474;2022-09-09T06:27:41;8.95;;;2.25;;
72611;SDS011;60655;52.182;4.474;2022-09-09T06:29:42;7.90;;;1.92;;
72611;SDS011;60655;52.182;4.474;2022-09-09T06:31:43;11.02;;;2.22;;
72611;SDS011;60655;52.182;4.474;2022-09-09T06:33:45;8.98;;;3.38;;
72611;SDS011;60655;52.182;4.474;2022-09-09T06:35:51;6.50;;;2.03;;
72611;SDS011;60655;52.182;4.474;2022-09-09T06:37:53;9.07;;;2.33;;
72611;SDS011;60655;52.182;4.474;2022-09-09T06:39:54;8.32;;;2.70;;
72611;SDS011;60655;52.182;4.474;2022-09-09T06:41:55;10.23;;;2.65;;
72611;SDS011;60655;52.182;4.474;2022-09-09T06:43:58;8.82;;;2.47;;
72611;SDS011;60655;52.182;4.474;2022-09-09T06:48:08;9.30;;;2.50;;
72611;SDS011;60655;52.182;4.474;2022-09-09T06:50:09;7.63;;;2.78;;
72611;SDS011;60655;52.182;4.474;2022-09-09T06:52:11;8.68;;;2.30;;
72611;SDS011;60655;52.182;4.474;2022-09-09T06:54:12;8.45;;;2.50;;
72611;SDS011;60655;52.182;4.474;2022-09-09T06:56:17;9.68;;;2.90;;
72611;SDS011;60655;52.182;4.474;2022-09-09T06:58:21;9.02;;;2.67;;
72611;SDS011;60655;52.182;4.474;2022-09-09T07:00:24;7.47;;;3.20;;
72611;SDS011;60655;52.182;4.474;2022-09-09T07:02:26;7.50;;;3.15;;
72611;SDS011;60655;52.182;4.474;2022-09-09T07:04:26;8.63;;;2.92;;
72611;SDS011;60655;52.182;4.474;2022-09-09T07:06:28;8.48;;;3.40;;
72611;SDS011;60655;52.182;4.474;2022-09-09T07:08:31;12.65;;;4.10;;
72611;SDS011;60655;52.182;4.474;2022-09-09T07:10:32;10.95;;;3.78;;
72611;SDS011;60655;52.182;4.474;2022-09-09T07:12:34;12.63;;;3.40;;
72611;SDS011;60655;52.182;4.474;2022-09-09T07:14:35;12.60;;;3.65;;
72611;SDS011;60655;52.182;4.474;2022-09-09T07:16:38;11.77;;;3.30;;
72611;SDS011;60655;52.182;4.474;2022-09-09T07:18:40;7.53;;;3.15;;
72611;SDS011;60655;52.182;4.474;2022-09-09T07:20:41;8.85;;;3.47;;
72611;SDS011;60655;52.182;4.474;2022-09-09T07:22:42;11.05;;;3.80;;
72611;SDS011;60655;52.182;4.474;2022-09-09T07:24:43;8.80;;;3.55;;
72611;SDS011;60655;52.182;4.474;2022-09-09T07:26:45;11.05;;;3.60;;
72611;SDS011;60655;52.182;4.474;2022-09-09T07:28:47;8.90;;;3.38;;
72611;SDS011;60655;52.182;4.474;2022-09-09T07:30:58;10.07;;;3.40;;
72611;SDS011;60655;52.182;4.474;2022-09-09T07:33:03;7.55;;;3.00;;
72611;SDS011;60655;52.182;4.474;2022-09-09T07:35:04;12.38;;;3.30;;
72611;SDS011;60655;52.182;4.474;2022-09-09T07:37:05;10.35;;;3.20;;
72611;SDS011;60655;52.182;4.474;2022-09-09T07:39:08;9.98;;;3.83;;
72611;SDS011;60655;52.182;4.474;2022-09-09T07:41:11;11.88;;;3.55;;
72611;SDS011;60655;52.182;4.474;2022-09-09T07:43:13;9.27;;;3.28;;
72611;SDS011;60655;52.182;4.474;2022-09-09T07:45:14;9.13;;;3.10;;
72611;SDS011;60655;52.182;4.474;2022-09-09T07:47:15;9.80;;;3.30;;
72611;SDS011;60655;52.182;4.474;2022-09-09T07:49:16;15.27;;;3.83;;
72611;SDS011;60655;52.182;4.474;2022-09-09T07:51:27;10.15;;;3.33;;
72611;SDS011;60655;52.182;4.474;2022-09-09T07:53:30;13.15;;;3.15;;
72611;SDS011;60655;52.182;4.474;2022-09-09T07:55:31;12.65;;;4.00;;
72611;SDS011;60655;52.182;4.474;2022-09-09T07:57:32;10.75;;;3.42;;
72611;SDS011;60655;52.182;4.474;2022-09-09T07:59:33;11.40;;;3.63;;
72611;SDS011;60655;52.182;4.474;2022-09-09T08:01:35;9.80;;;3.35;;
72611;SDS011;60655;52.182;4.474;2022-09-09T08:03:39;10.68;;;4.22;;
72611;SDS011;60655;52.182;4.474;2022-09-09T08:05:40;10.07;;;3.42;;
72611;SDS011;60655;52.182;4.474;2022-09-09T08:07:41;9.43;;;3.15;;
72611;SDS011;60655;52.182;4.474;2022-09-09T08:09:43;9.35;;;3.50;;
72611;SDS011;60655;52.182;4.474;2022-09-09T08:11:44;11.93;;;3.88;;
72611;SDS011;60655;52.182;4.474;2022-09-09T08:13:45;9.88;;;3.70;;
72611;SDS011;60655;52.182;4.474;2022-09-09T08:15:46;7.97;;;3.30;;
72611;SDS011;60655;52.182;4.474;2022-09-09T08:17:47;12.20;;;4.03;;
72611;SDS011;60655;52.182;4.474;2022-09-09T08:19:48;11.45;;;3.33;;
72611;SDS011;60655;52.182;4.474;2022-09-09T08:21:49;7.50;;;3.20;;
72611;SDS011;60655;52.182;4.474;2022-09-09T08:23:51;11.40;;;3.67;;
72611;SDS011;60655;52.182;4.474;2022-09-09T08:25:53;10.95;;;3.92;;
72611;SDS011;60655;52.182;4.474;2022-09-09T08:27:54;19.23;;;3.65;;
72611;SDS011;60655;52.182;4.474;2022-09-09T08:29:56;8.05;;;3.58;;
72611;SDS011;60655;52.182;4.474;2022-09-09T08:31:57;10.73;;;3.00;;
72611;SDS011;60655;52.182;4.474;2022-09-09T08:33:59;11.77;;;3.10;;
72611;SDS011;60655;52.182;4.474;2022-09-09T08:36:00;11.52;;;3.17;;
72611;SDS011;60655;52.182;4.474;2022-09-09T08:38:01;10.50;;;3.53;;
72611;SDS011;60655;52.182;4.474;2022-09-09T08:40:03;11.43;;;3.40;;
72611;SDS011;60655;52.182;4.474;2022-09-09T08:42:17;8.88;;;3.05;;
72611;SDS011;60655;52.182;4.474;2022-09-09T08:44:34;7.88;;;2.88;;
72611;SDS011;60655;52.182;4.474;2022-09-09T08:47:07;8.30;;;3.10;;
72611;SDS011;60655;52.182;4.474;2022-09-09T08:49:44;7.90;;;2.90;;
72611;SDS011;60655;52.182;4.474;2022-09-09T08:51:50;8.77;;;2.80;;
72611;SDS011;60655;52.182;4.474;2022-09-09T08:53:51;6.88;;;2.95;;
72611;SDS011;60655;52.182;4.474;2022-09-09T08:55:54;8.35;;;3.05;;
72611;SDS011;60655;52.182;4.474;2022-09-09T08:58:01;9.98;;;3.17;;
72611;SDS011;60655;52.182;4.474;2022-09-09T09:00:10;7.63;;;3.05;;
72611;SDS011;60655;52.182;4.474;2022-09-09T09:04:33;10.32;;;2.97;;
72611;SDS011;60655;52.182;4.474;2022-09-09T09:06:47;8.95;;;2.88;;
72611;SDS011;60655;52.182;4.474;2022-09-09T09:11:16;12.02;;;3.10;;
72611;SDS011;60655;52.182;4.474;2022-09-09T09:15:36;7.55;;;3.10;;
72611;SDS011;60655;52.182;4.474;2022-09-09T09:17:38;10.00;;;3.22;;
72611;SDS011;60655;52.182;4.474;2022-09-09T09:19:40;9.10;;;2.70;;
72611;SDS011;60655;52.182;4.474;2022-09-09T09:21:44;13.52;;;3.35;;
72611;SDS011;60655;52.182;4.474;2022-09-09T09:23:59;11.13;;;2.90;;
72611;SDS011;60655;52.182;4.474;2022-09-09T09:26:01;10.90;;;3.20;;
72611;SDS011;60655;52.182;4.474;2022-09-09T09:28:13;9.88;;;3.80;;
72611;SDS011;60655;52.182;4.474;2022-09-09T09:30:22;8.05;;;3.10;;
72611;SDS011;60655;52.182;4.474;2022-09-09T09:32:25;10.15;;;3.70;;
72611;SDS011;60655;52.182;4.474;2022-09-09T09:34:28;9.90;;;3.42;;
72611;SDS011;60655;52.182;4.474;2022-09-09T09:36:34;7.53;;;3.25;;
72611;SDS011;60655;52.182;4.474;2022-09-09T09:38:39;10.43;;;3.75;;
72611;SDS011;60655;52.182;4.474;2022-09-09T09:40:47;10.68;;;3.30;;
72611;SDS011;60655;52.182;4.474;2022-09-09T09:42:57;11.55;;;3.92;;
72611;SDS011;60655;52.182;4.474;2022-09-09T09:45:17;11.50;;;3.65;;
72611;SDS011;60655;52.182;4.474;2022-09-09T09:47:39;8.32;;;2.83;;
72611;SDS011;60655;52.182;4.474;2022-09-09T09:49:51;10.75;;;3.38;;
72611;SDS011;60655;52.182;4.474;2022-09-09T09:52:00;7.35;;;3.78;;
72611;SDS011;60655;52.182;4.474;2022-09-09T09:54:13;7.75;;;3.40;;
72611;SDS011;60655;52.182;4.474;2022-09-09T09:56:26;9.25;;;3.42;;
72611;SDS011;60655;52.182;4.474;2022-09-09T09:58:31;9.32;;;3.70;;
72611;SDS011;60655;52.182;4.474;2022-09-09T10:00:54;11.55;;;4.18;;
72611;SDS011;60655;52.182;4.474;2022-09-09T10:02:55;10.43;;;3.45;;
72611;SDS011;60655;52.182;4.474;2022-09-09T10:05:00;11.45;;;3.90;;
72611;SDS011;60655;52.182;4.474;2022-09-09T10:07:11;13.10;;;4.35;;
72611;SDS011;60655;52.182;4.474;2022-09-09T10:09:26;13.02;;;4.15;;
72611;SDS011;60655;52.182;4.474;2022-09-09T10:14:12;10.02;;;3.80;;
72611;SDS011;60655;52.182;4.474;2022-09-09T10:21:13;12.70;;;4.22;;
72611;SDS011;60655;52.182;4.474;2022-09-09T10:25:33;10.32;;;4.18;;
72611;SDS011;60655;52.182;4.474;2022-09-09T10:28:00;10.68;;;4.22;;
72611;SDS011;60655;52.182;4.474;2022-09-09T10:30:14;10.95;;;4.10;;
72611;SDS011;60655;52.182;4.474;2022-09-09T10:32:33;15.20;;;4.57;;
72611;SDS011;60655;52.182;4.474;2022-09-09T10:36:53;8.73;;;3.65;;
72611;SDS011;60655;52.182;4.474;2022-09-09T10:39:04;9.10;;;3.35;;
72611;SDS011;60655;52.182;4.474;2022-09-09T10:41:16;7.20;;;3.50;;
72611;SDS011;60655;52.182;4.474;2022-09-09T10:50:15;8.70;;;3.30;;
72611;SDS011;60655;52.182;4.474;2022-09-09T10:52:31;11.18;;;3.67;;
72611;SDS011;60655;52.182;4.474;2022-09-09T10:54:46;9.52;;;2.92;;
72611;SDS011;60655;52.182;4.474;2022-09-09T10:56:58;11.98;;;3.63;;
72611;SDS011;60655;52.182;4.474;2022-09-09T10:59:16;10.63;;;3.65;;
72611;SDS011;60655;52.182;4.474;2022-09-09T11:01:27;9.63;;;3.30;;
72611;SDS011;60655;52.182;4.474;2022-09-09T11:03:32;10.48;;;3.38;;
72611;SDS011;60655;52.182;4.474;2022-09-09T11:07:44;10.15;;;4.15;;
72611;SDS011;60655;52.182;4.474;2022-09-09T11:09:54;14.52;;;3.42;;
72611;SDS011;60655;52.182;4.474;2022-09-09T11:11:59;9.23;;;3.67;;
72611;SDS011;60655;52.182;4.474;2022-09-09T11:16:28;10.88;;;3.63;;
72611;SDS011;60655;52.182;4.474;2022-09-09T11:18:30;6.35;;;3.30;;
72611;SDS011;60655;52.182;4.474;2022-09-09T11:20:36;7.30;;;2.88;;
72611;SDS011;60655;52.182;4.474;2022-09-09T11:22:39;9.32;;;2.92;;
72611;SDS011;60655;52.182;4.474;2022-09-09T11:26:54;6.53;;;2.85;;
72611;SDS011;60655;52.182;4.474;2022-09-09T11:29:24;8.27;;;3.03;;
72611;SDS011;60655;52.182;4.474;2022-09-09T11:38:13;9.23;;;2.72;;
72611;SDS011;60655;52.182;4.474;2022-09-09T11:42:23;10.43;;;2.78;;
72611;SDS011;60655;52.182;4.474;2022-09-09T11:44:28;7.60;;;2.97;;
72611;SDS011;60655;52.182;4.474;2022-09-09T11:46:32;7.32;;;2.58;;
72611;SDS011;60655;52.182;4.474;2022-09-09T11:48:39;9.70;;;3.30;;
72611;SDS011;60655;52.182;4.474;2022-09-09T11:50:43;8.07;;;2.53;;
72611;SDS011;60655;52.182;4.474;2022-09-09T11:52:45;9.75;;;3.15;;
72611;SDS011;60655;52.182;4.474;2022-09-09T11:54:48;8.60;;;2.78;;
72611;SDS011;60655;52.182;4.474;2022-09-09T11:56:50;10.30;;;3.55;;
72611;SDS011;60655;52.182;4.474;2022-09-09T11:58:58;8.00;;;2.83;;
72611;SDS011;60655;52.182;4.474;2022-09-09T12:01:01;7.32;;;3.20;;
72611;SDS011;60655;52.182;4.474;2022-09-09T12:05:40;7.97;;;2.88;;
72611;SDS011;60655;52.182;4.474;2022-09-09T12:12:16;9.02;;;4.07;;
72611;SDS011;60655;52.182;4.474;2022-09-09T12:14:37;7.15;;;3.38;;
72611;SDS011;60655;52.182;4.474;2022-09-09T12:16:44;7.88;;;2.95;;
72611;SDS011;60655;52.182;4.474;2022-09-09T12:18:45;7.85;;;4.03;;
72611;SDS011;60655;52.182;4.474;2022-09-09T12:20:52;11.32;;;3.40;;
72611;SDS011;60655;52.182;4.474;2022-09-09T12:25:29;8.18;;;2.75;;
72611;SDS011;60655;52.182;4.474;2022-09-09T12:27:36;6.55;;;2.95;;
72611;SDS011;60655;52.182;4.474;2022-09-09T12:32:22;8.48;;;3.00;;
72611;SDS011;60655;52.182;4.474;2022-09-09T12:34:35;7.57;;;3.20;;
72611;SDS011;60655;52.182;4.474;2022-09-09T12:36:38;6.72;;;2.90;;
72611;SDS011;60655;52.182;4.474;2022-09-09T12:38:42;7.55;;;2.55;;
72611;SDS011;60655;52.182;4.474;2022-09-09T12:40:53;7.40;;;2.53;;
72611;SDS011;60655;52.182;4.474;2022-09-09T12:42:55;6.07;;;2.70;;
72611;SDS011;60655;52.182;4.474;2022-09-09T12:44:57;7.70;;;3.13;;
72611;SDS011;60655;52.182;4.474;2022-09-09T12:47:03;7.72;;;3.35;;
72611;SDS011;60655;52.182;4.474;2022-09-09T12:49:05;9.32;;;3.05;;
72611;SDS011;60655;52.182;4.474;2022-09-09T12:51:15;7.55;;;3.15;;
72611;SDS011;60655;52.182;4.474;2022-09-09T12:53:33;8.60;;;2.90;;
72611;SDS011;60655;52.182;4.474;2022-09-09T12:55:37;6.38;;;3.38;;
72611;SDS011;60655;52.182;4.474;2022-09-09T12:57:39;10.65;;;3.50;;
72611;SDS011;60655;52.182;4.474;2022-09-09T12:59:42;7.93;;;3.08;;
72611;SDS011;60655;52.182;4.474;2022-09-09T13:01:54;6.57;;;3.03;;
72611;SDS011;60655;52.182;4.474;2022-09-09T13:03:57;4.93;;;3.00;;
72611;SDS011;60655;52.182;4.474;2022-09-09T13:05:59;7.10;;;3.22;;
72611;SDS011;60655;52.182;4.474;2022-09-09T13:08:13;6.43;;;2.70;;
72611;SDS011;60655;52.182;4.474;2022-09-09T13:10:17;7.22;;;3.10;;
72611;SDS011;60655;52.182;4.474;2022-09-09T13:12:25;8.55;;;2.65;;
72611;SDS011;60655;52.182;4.474;2022-09-09T13:14:28;7.47;;;2.53;;
72611;SDS011;60655;52.182;4.474;2022-09-09T13:18:35;5.10;;;2.47;;
72611;SDS011;60655;52.182;4.474;2022-09-09T13:20:44;6.25;;;2.60;;
72611;SDS011;60655;52.182;4.474;2022-09-09T13:22:48;5.32;;;2.10;;
72611;SDS011;60655;52.182;4.474;2022-09-09T13:25:16;6.55;;;2.65;;
72611;SDS011;60655;52.182;4.474;2022-09-09T13:27:28;5.75;;;2.10;;
72611;SDS011;60655;52.182;4.474;2022-09-09T13:29:31;5.88;;;2.25;;
72611;SDS011;60655;52.182;4.474;2022-09-09T13:31:33;5.70;;;1.92;;
72611;SDS011;60655;52.182;4.474;2022-09-09T13:33:37;4.60;;;1.83;;
72611;SDS011;60655;52.182;4.474;2022-09-09T13:35:58;4.80;;;1.77;;
72611;SDS011;60655;52.182;4.474;2022-09-09T13:38:06;4.20;;;1.70;;
72611;SDS011;60655;52.182;4.474;2022-09-09T13:40:17;4.65;;;1.85;;
72611;SDS011;60655;52.182;4.474;2022-09-09T13:42:27;4.85;;;2.05;;
72611;SDS011;60655;52.182;4.474;2022-09-09T13:44:36;5.47;;;2.20;;
72611;SDS011;60655;52.182;4.474;2022-09-09T13:46:40;7.47;;;2.25;;
72611;SDS011;60655;52.182;4.474;2022-09-09T13:48:41;6.10;;;2.15;;
72611;SDS011;60655;52.182;4.474;2022-09-09T13:50:42;5.72;;;2.00;;
72611;SDS011;60655;52.182;4.474;2022-09-09T13:52:55;6.78;;;2.30;;
72611;SDS011;60655;52.182;4.474;2022-09-09T13:55:01;8.20;;;2.28;;
72611;SDS011;60655;52.182;4.474;2022-09-09T13:57:01;6.95;;;2.00;;
72611;SDS011;60655;52.182;4.474;2022-09-09T13:59:03;5.53;;;1.77;;
72611;SDS011;60655;52.182;4.474;2022-09-09T14:01:05;5.07;;;1.80;;
72611;SDS011;60655;52.182;4.474;2022-09-09T14:03:06;4.63;;;1.65;;
72611;SDS011;60655;52.182;4.474;2022-09-09T14:05:08;5.68;;;1.90;;
72611;SDS011;60655;52.182;4.474;2022-09-09T14:07:12;4.97;;;1.70;;
72611;SDS011;60655;52.182;4.474;2022-09-09T14:09:16;4.72;;;1.30;;